createdAt,value
2019-01-11T00:01:51.747Z,4.77
2019-01-11T00:04:22.879Z,4.27
2019-01-11T00:06:53.886Z,4.20
2019-01-11T00:09:25.189Z,10.13
2019-01-11T00:11:55.991Z,12.53
2019-01-11T00:14:27.113Z,7.03
2019-01-11T00:16:57.969Z,6.97
2019-01-11T00:19:28.890Z,6.27
2019-01-11T00:22:00.013Z,4.07
2019-01-11T00:24:31.115Z,4.40
2019-01-11T00:27:02.155Z,6.57
2019-01-11T00:29:33.171Z,4.00
2019-01-11T00:32:04.362Z,4.60
2019-01-11T00:34:35.473Z,4.13
2019-01-11T00:37:06.450Z,4.97
2019-01-11T00:39:37.324Z,4.53
2019-01-11T00:42:08.207Z,4.23
2019-01-11T00:44:39.000Z,6.83
2019-01-11T00:47:10.514Z,6.60
2019-01-11T00:49:41.384Z,5.50
2019-01-11T00:52:12.269Z,4.73
2019-01-11T00:54:43.296Z,5.53
2019-01-11T00:57:14.178Z,5.07
2019-01-11T00:59:45.367Z,7.70
2019-01-11T01:02:16.484Z,5.67
2019-01-11T01:04:47.907Z,5.37
2019-01-11T01:07:19.095Z,7.43
2019-01-11T01:09:49.960Z,6.07
2019-01-11T01:12:20.842Z,8.20
2019-01-11T01:14:51.702Z,5.93
2019-01-11T01:17:22.600Z,6.50
2019-01-11T01:19:53.445Z,5.67
2019-01-11T01:22:24.333Z,5.80
2019-01-11T01:24:55.426Z,5.63
2019-01-11T01:27:26.589Z,4.37
2019-01-11T01:29:57.370Z,7.33
2019-01-11T01:32:28.485Z,5.63
2019-01-11T01:34:59.430Z,6.13
2019-01-11T01:37:30.458Z,5.77
2019-01-11T01:40:01.336Z,5.33
2019-01-11T01:42:32.507Z,7.10
2019-01-11T01:45:03.361Z,6.00
2019-01-11T01:47:34.135Z,4.90
2019-01-11T01:50:06.152Z,4.97
2019-01-11T01:52:37.067Z,7.13
2019-01-11T01:55:08.543Z,8.20
2019-01-11T01:57:39.616Z,4.87
2019-01-11T02:00:13.905Z,4.67
2019-01-11T02:02:44.828Z,4.00
2019-01-11T02:05:15.998Z,4.13
2019-01-11T02:07:47.158Z,6.20
2019-01-11T02:10:18.092Z,4.13
2019-01-11T02:12:49.428Z,6.60
2019-01-11T02:15:20.437Z,4.90
2019-01-11T02:17:51.522Z,5.47
2019-01-11T02:20:22.312Z,6.27
2019-01-11T02:22:53.507Z,4.87
2019-01-11T02:25:24.368Z,4.90
2019-01-11T02:27:55.356Z,6.97
2019-01-11T02:30:26.301Z,4.43
2019-01-11T02:32:57.060Z,5.57
2019-01-11T02:35:27.852Z,4.13
2019-01-11T02:37:58.683Z,4.70
2019-01-11T02:40:29.778Z,4.30
2019-01-11T02:43:00.544Z,4.90
2019-01-11T02:45:31.625Z,5.73
2019-01-11T02:48:02.612Z,4.33
2019-01-11T02:50:33.704Z,4.83
2019-01-11T02:53:05.433Z,6.80
2019-01-11T02:55:36.275Z,5.17
2019-01-11T02:58:07.530Z,5.77
2019-01-11T03:00:38.318Z,4.77
2019-01-11T03:03:09.391Z,5.03
2019-01-11T03:05:40.476Z,7.50
2019-01-11T03:08:11.529Z,9.23
2019-01-11T03:10:42.802Z,7.07
2019-01-11T03:13:13.562Z,8.30
2019-01-11T03:15:44.633Z,6.50
2019-01-11T03:18:15.953Z,7.03
2019-01-11T03:20:48.039Z,6.60
2019-01-11T03:23:19.297Z,7.47
2019-01-11T03:25:50.315Z,6.53
2019-01-11T03:28:22.263Z,8.37
2019-01-11T03:30:58.071Z,7.13
2019-01-11T03:33:29.328Z,10.43
2019-01-11T03:36:00.330Z,8.00
2019-01-11T03:38:31.388Z,8.93
2019-01-11T03:41:02.574Z,9.70
2019-01-11T03:43:33.755Z,8.67
2019-01-11T03:46:04.924Z,7.70
2019-01-11T03:48:36.001Z,8.37
2019-01-11T03:51:07.082Z,7.20
2019-01-11T03:53:37.856Z,6.87
2019-01-11T03:56:09.037Z,10.10
2019-01-11T03:58:40.022Z,8.43
2019-01-11T04:01:11.117Z,9.00
2019-01-11T04:03:41.879Z,9.77
2019-01-11T04:06:13.016Z,8.40
2019-01-11T04:08:43.778Z,7.43
2019-01-11T04:11:14.530Z,9.33
2019-01-11T04:13:45.531Z,8.37
2019-01-11T04:16:16.695Z,12.87
2019-01-11T04:18:57.861Z,11.07
2019-01-11T04:21:28.856Z,11.20
2019-01-11T04:23:59.878Z,8.90
2019-01-11T04:26:31.058Z,11.27
2019-01-11T04:29:02.061Z,11.97
2019-01-11T04:31:32.825Z,10.07
2019-01-11T04:34:03.614Z,10.80
2019-01-11T04:36:34.688Z,11.73
2019-01-11T04:39:07.671Z,11.17
2019-01-11T04:41:38.652Z,9.37
2019-01-11T04:44:09.774Z,12.03
2019-01-11T04:46:40.535Z,11.93
2019-01-11T04:49:11.634Z,14.63
2019-01-11T04:51:42.471Z,12.20
2019-01-11T04:54:13.255Z,10.60
2019-01-11T04:56:44.007Z,11.80
2019-01-11T04:59:14.788Z,13.70
2019-01-11T05:01:45.622Z,10.60
2019-01-11T05:04:17.060Z,11.37
2019-01-11T05:06:48.057Z,11.77
2019-01-11T05:09:19.072Z,12.03
2019-01-11T05:11:50.060Z,12.50
2019-01-11T05:14:21.068Z,13.40
2019-01-11T05:16:51.894Z,13.20
2019-01-11T05:19:22.742Z,12.10
2019-01-11T05:21:53.537Z,13.83
2019-01-11T05:24:24.328Z,13.93
2019-01-11T05:26:55.464Z,16.53
2019-01-11T05:29:27.688Z,12.83
2019-01-11T05:31:58.641Z,14.40
2019-01-11T05:34:29.536Z,13.80
2019-01-11T05:37:00.538Z,14.97
2019-01-11T05:39:31.340Z,17.40
2019-01-11T05:42:02.188Z,14.33
2019-01-11T05:44:33.424Z,14.93
2019-01-11T05:47:04.490Z,18.70
2019-01-11T05:49:35.292Z,15.90
2019-01-11T05:52:06.056Z,15.33
2019-01-11T05:54:37.095Z,16.63
2019-01-11T05:57:07.868Z,17.63
2019-01-11T05:59:38.664Z,19.20
2019-01-11T06:02:09.426Z,14.60
2019-01-11T06:04:43.952Z,17.83
2019-01-11T06:07:30.213Z,16.23
2019-01-11T06:10:01.337Z,18.83
2019-01-11T06:12:32.122Z,14.87
2019-01-11T06:15:03.209Z,16.57
2019-01-11T06:17:33.990Z,18.63
2019-01-11T06:20:07.208Z,18.07
2019-01-11T06:22:38.217Z,15.23
2019-01-11T06:25:09.412Z,15.50
2019-01-11T06:27:40.190Z,15.87
2019-01-11T06:30:12.998Z,18.37
2019-01-11T06:32:43.942Z,16.27
2019-01-11T06:35:15.017Z,16.63
2019-01-11T06:37:46.103Z,18.47
2019-01-11T06:40:16.939Z,18.73
2019-01-11T06:42:47.794Z,18.00
2019-01-11T06:45:18.568Z,22.40
2019-01-11T06:47:50.764Z,17.47
2019-01-11T06:50:21.765Z,21.00
2019-01-11T06:52:52.788Z,17.13
2019-01-11T06:55:23.775Z,18.90
2019-01-11T06:57:54.796Z,17.90
2019-01-11T07:00:25.559Z,20.57
2019-01-11T07:02:56.340Z,19.73
2019-01-11T07:05:27.708Z,20.23
2019-01-11T07:07:58.505Z,23.13
2019-01-11T07:10:29.580Z,20.67
2019-01-11T07:13:01.073Z,21.63
2019-01-11T07:15:32.172Z,19.20
2019-01-11T07:18:04.366Z,20.90
2019-01-11T07:20:35.425Z,21.03
2019-01-11T07:23:06.504Z,21.10
2019-01-11T07:25:37.832Z,21.20
2019-01-11T07:28:13.647Z,20.70
2019-01-11T07:30:58.925Z,20.63
2019-01-11T07:33:31.001Z,20.93
2019-01-11T07:36:17.039Z,20.07
2019-01-11T07:38:48.493Z,27.17
2019-01-11T07:41:19.259Z,25.37
2019-01-11T07:43:52.963Z,27.93
2019-01-11T07:46:24.019Z,24.30
2019-01-11T07:48:54.836Z,21.63
2019-01-11T07:51:25.700Z,24.17
2019-01-11T07:53:56.818Z,26.47
2019-01-11T07:56:27.645Z,24.60
2019-01-11T07:58:58.972Z,31.27
2019-01-11T08:01:31.877Z,24.77
2019-01-11T08:04:02.934Z,24.13
2019-01-11T08:06:34.027Z,24.97
2019-01-11T08:09:07.664Z,25.03
2019-01-11T08:11:38.535Z,28.23
2019-01-11T08:14:10.066Z,24.30
2019-01-11T08:16:40.898Z,29.90
2019-01-11T08:19:11.755Z,27.83
2019-01-11T08:21:42.817Z,29.13
2019-01-11T08:24:13.597Z,29.77
2019-01-11T08:26:44.661Z,29.30
2019-01-11T08:29:15.508Z,24.47
2019-01-11T08:31:46.347Z,25.17
2019-01-11T08:34:17.195Z,28.43
2019-01-11T08:36:47.972Z,30.57
2019-01-11T08:39:18.749Z,31.47
2019-01-11T08:41:49.520Z,30.20
2019-01-11T08:44:20.401Z,37.23
2019-01-11T08:46:52.378Z,30.37
2019-01-11T08:49:23.522Z,38.03
2019-01-11T08:51:54.521Z,30.73
2019-01-11T08:54:25.811Z,30.40
2019-01-11T08:56:56.920Z,31.87
2019-01-11T08:59:27.927Z,28.17
2019-01-11T09:01:58.907Z,30.37
2019-01-11T09:04:29.977Z,29.87
2019-01-11T09:07:01.015Z,33.20
2019-01-11T09:09:31.795Z,28.87
2019-01-11T09:12:02.707Z,31.53
2019-01-11T09:14:51.447Z,29.47
2019-01-11T09:17:22.346Z,29.57
2019-01-11T09:19:53.249Z,30.43
2019-01-11T09:22:24.022Z,30.90
2019-01-11T09:24:55.536Z,33.13
2019-01-11T09:27:26.305Z,31.50
2019-01-11T09:29:58.053Z,30.23
2019-01-11T09:32:29.133Z,33.47
2019-01-11T09:35:00.199Z,35.20
2019-01-11T09:37:31.137Z,32.80
2019-01-11T09:40:01.998Z,32.90
2019-01-11T09:42:32.763Z,36.80
2019-01-11T09:45:04.000Z,33.20
2019-01-11T09:47:34.765Z,30.30
2019-01-11T09:50:06.336Z,32.30
2019-01-11T09:52:37.223Z,32.13
2019-01-11T09:55:17.330Z,32.20
2019-01-11T09:57:50.787Z,32.17
2019-01-11T10:00:24.416Z,31.33
2019-01-11T10:02:58.775Z,32.20
2019-01-11T10:05:29.562Z,39.97
2019-01-11T10:08:00.571Z,33.33
2019-01-11T10:10:31.869Z,30.33
2019-01-11T10:13:03.331Z,34.33
2019-01-11T10:15:34.758Z,34.83
2019-01-11T10:18:06.091Z,34.83
2019-01-11T10:20:37.105Z,41.13
2019-01-11T10:23:08.121Z,38.57
2019-01-11T10:25:39.176Z,39.80
2019-01-11T10:28:10.437Z,37.50
2019-01-11T10:30:41.428Z,41.93
2019-01-11T10:33:12.513Z,35.03
2019-01-11T10:35:43.533Z,36.23
2019-01-11T10:38:14.365Z,37.57
2019-01-11T10:40:45.453Z,34.40
2019-01-11T10:43:16.512Z,35.27
2019-01-11T10:45:47.542Z,37.40
2019-01-11T10:48:18.768Z,34.83
2019-01-11T10:50:50.017Z,37.97
2019-01-11T10:53:20.775Z,36.97
2019-01-11T10:55:51.792Z,41.97
2019-01-11T10:58:22.965Z,39.33
2019-01-11T11:00:54.100Z,34.27
2019-01-11T11:03:24.865Z,38.13
2019-01-11T11:05:55.650Z,39.37
2019-01-11T11:08:27.954Z,41.47
2019-01-11T11:10:59.201Z,46.83
2019-01-11T11:13:30.439Z,39.33
2019-01-11T11:16:01.592Z,41.40
2019-01-11T11:18:32.711Z,40.17
2019-01-11T11:21:03.487Z,46.07
2019-01-11T11:23:34.248Z,38.47
2019-01-11T11:26:05.510Z,45.47
2019-01-11T11:28:36.341Z,43.93
2019-01-11T11:31:08.018Z,47.13
2019-01-11T11:33:39.325Z,44.80
2019-01-11T11:36:10.405Z,41.87
2019-01-11T11:38:41.321Z,42.57
2019-01-11T11:41:12.668Z,47.50
2019-01-11T11:43:43.537Z,48.60
2019-01-11T11:46:14.385Z,47.40
2019-01-11T11:48:45.157Z,45.37
2019-01-11T11:51:15.924Z,47.83
2019-01-11T11:53:46.765Z,45.90
2019-01-11T11:56:17.771Z,50.27
2019-01-11T11:58:48.528Z,46.03
2019-01-11T12:01:19.632Z,51.80
2019-01-11T12:03:50.961Z,50.07
2019-01-11T12:06:21.907Z,48.60
2019-01-11T12:08:52.672Z,46.87
2019-01-11T12:11:23.683Z,55.17
2019-01-11T12:13:54.918Z,46.93
2019-01-11T12:16:25.990Z,60.33
2019-01-11T12:18:56.751Z,50.50
2019-01-11T12:21:27.618Z,44.73
2019-01-11T12:23:58.459Z,43.47
2019-01-11T12:26:29.315Z,42.67
2019-01-11T12:29:00.349Z,44.20
2019-01-11T12:31:31.641Z,44.60
2019-01-11T12:34:02.889Z,46.43
2019-01-11T12:36:33.798Z,46.67
2019-01-11T12:39:07.592Z,41.07
2019-01-11T12:41:38.671Z,39.67
2019-01-11T12:44:09.442Z,42.17
2019-01-11T12:46:40.323Z,46.43
2019-01-11T12:49:11.162Z,44.30
2019-01-11T12:51:42.335Z,48.90
2019-01-11T12:54:13.404Z,42.87
2019-01-11T12:56:44.407Z,45.43
2019-01-11T12:59:15.236Z,44.70
2019-01-11T13:01:46.291Z,43.30
2019-01-11T13:04:17.074Z,41.33
2019-01-11T13:06:48.107Z,45.90
2019-01-11T13:09:19.098Z,46.67
2019-01-11T13:11:50.107Z,43.53
2019-01-11T13:14:21.313Z,40.17
2019-01-11T13:16:52.654Z,46.17
2019-01-11T13:19:23.692Z,41.70
2019-01-11T13:22:00.406Z,44.53
2019-01-11T13:24:27.564Z,45.77
2019-01-11T13:26:58.832Z,47.60
2019-01-11T13:29:29.875Z,49.43
2019-01-11T13:32:00.882Z,50.30
2019-01-11T13:34:32.853Z,43.37
2019-01-11T13:37:03.931Z,44.87
2019-01-11T13:39:34.732Z,42.17
2019-01-11T13:42:05.745Z,45.00
2019-01-11T13:44:38.191Z,44.93
2019-01-11T13:47:09.308Z,41.57
2019-01-11T13:49:40.148Z,42.50
2019-01-11T13:52:11.013Z,46.70
2019-01-11T13:54:42.061Z,39.97
2019-01-11T13:57:12.832Z,40.93
2019-01-11T13:59:43.698Z,40.40
2019-01-11T14:02:15.014Z,42.27
2019-01-11T14:04:46.156Z,44.83
2019-01-11T14:07:17.559Z,41.87
2019-01-11T14:09:48.634Z,40.90
2019-01-11T14:12:20.280Z,40.37
2019-01-11T14:14:51.900Z,42.07
2019-01-11T14:17:23.037Z,40.40
2019-01-11T14:20:00.034Z,42.37
2019-01-11T14:22:31.338Z,37.40
2019-01-11T14:25:02.468Z,43.87
2019-01-11T14:27:33.266Z,42.73
2019-01-11T14:30:04.873Z,44.30
2019-01-11T14:32:35.812Z,42.10
2019-01-11T14:35:07.796Z,42.90
2019-01-11T14:37:39.044Z,43.10
2019-01-11T14:40:12.091Z,44.17
2019-01-11T14:42:43.987Z,42.10
2019-01-11T14:45:16.146Z,39.93
2019-01-11T14:47:47.327Z,40.83
2019-01-11T14:50:19.117Z,38.43
2019-01-11T14:52:50.517Z,39.27
2019-01-11T14:55:21.436Z,43.40
2019-01-11T14:57:52.415Z,41.33
2019-01-11T15:00:24.247Z,37.43
2019-01-11T15:02:55.256Z,36.90
2019-01-11T15:05:26.092Z,37.70
2019-01-11T15:07:57.273Z,39.63
2019-01-11T15:10:28.036Z,38.23
2019-01-11T15:12:58.948Z,39.87
2019-01-11T15:15:29.758Z,41.33
2019-01-11T15:18:00.865Z,41.63
2019-01-11T15:20:31.898Z,38.97
2019-01-11T15:23:02.684Z,36.33
2019-01-11T15:25:34.109Z,37.43
2019-01-11T15:28:05.323Z,39.73
2019-01-11T15:30:36.251Z,40.50
2019-01-11T15:33:07.390Z,41.90
2019-01-11T15:35:38.235Z,45.00
2019-01-11T15:38:09.514Z,41.83
2019-01-11T15:40:40.296Z,46.47
2019-01-11T15:43:11.156Z,43.27
2019-01-11T15:45:42.146Z,45.10
2019-01-11T15:48:17.562Z,47.00
2019-01-11T15:50:57.177Z,43.17
2019-01-11T15:53:35.373Z,41.07
2019-01-11T15:56:08.673Z,57.73
2019-01-11T15:58:39.710Z,40.33
2019-01-11T16:01:10.559Z,42.13
2019-01-11T16:03:41.337Z,41.57
2019-01-11T16:06:38.777Z,46.97
2019-01-11T16:10:16.043Z,47.47
2019-01-11T16:13:17.637Z,41.03
2019-01-11T16:16:44.863Z,47.33
2019-01-11T16:19:15.650Z,48.57
2019-01-11T16:21:46.504Z,53.63
2019-01-11T16:24:17.371Z,57.13
2019-01-11T16:26:48.138Z,47.03
2019-01-11T16:29:18.923Z,50.23
2019-01-11T16:31:49.766Z,48.13
2019-01-11T16:34:20.564Z,48.93
2019-01-11T16:36:51.562Z,48.33
2019-01-11T16:39:22.845Z,45.57
2019-01-11T16:41:53.612Z,44.53
2019-01-11T16:44:24.418Z,49.40
2019-01-11T16:46:55.186Z,48.23
2019-01-11T16:49:26.269Z,46.23
2019-01-11T16:51:57.130Z,46.83
2019-01-11T16:54:28.491Z,47.87
2019-01-11T16:56:59.506Z,48.93
2019-01-11T16:59:31.092Z,44.63
2019-01-11T17:02:03.081Z,46.20
2019-01-11T17:04:34.221Z,46.03
2019-01-11T17:07:05.378Z,44.33
2019-01-11T17:09:36.380Z,48.27
2019-01-11T17:12:07.148Z,46.40
2019-01-11T17:14:37.947Z,44.70
2019-01-11T17:17:08.872Z,47.97
2019-01-11T17:19:39.811Z,43.00
2019-01-11T17:22:10.581Z,43.87
2019-01-11T17:24:41.658Z,46.23
2019-01-11T17:27:12.566Z,42.73
2019-01-11T17:29:47.068Z,45.37
2019-01-11T17:32:15.881Z,41.37
2019-01-11T17:34:46.624Z,41.53
2019-01-11T17:37:17.395Z,42.13
2019-01-11T17:39:48.480Z,41.10
2019-01-11T17:42:21.749Z,42.13
2019-01-11T17:44:52.612Z,40.37
2019-01-11T17:47:23.629Z,41.07
2019-01-11T17:50:00.938Z,45.47
2019-01-11T17:52:27.731Z,42.37
2019-01-11T17:54:58.628Z,39.77
2019-01-11T17:57:29.413Z,39.80
2019-01-11T18:00:00.263Z,36.83
2019-01-11T18:02:31.033Z,36.67
2019-01-11T18:05:01.959Z,41.43
2019-01-11T18:07:32.877Z,38.33
2019-01-11T18:10:04.304Z,35.70
2019-01-11T18:12:35.269Z,40.87
2019-01-11T18:15:09.525Z,38.43
2019-01-11T18:17:40.363Z,37.57
2019-01-11T18:20:14.594Z,37.47
2019-01-11T18:22:46.097Z,39.80
2019-01-11T18:25:17.262Z,38.50
2019-01-11T18:27:48.422Z,38.57
2019-01-11T18:30:19.572Z,38.87
2019-01-11T18:32:50.893Z,38.57
2019-01-11T18:35:22.040Z,35.37
2019-01-11T18:37:52.953Z,36.87
2019-01-11T18:40:25.243Z,37.23
2019-01-11T18:42:56.356Z,39.70
2019-01-11T18:45:28.805Z,35.77
2019-01-11T18:47:59.600Z,37.93
2019-01-11T18:50:30.614Z,37.47
2019-01-11T18:53:01.384Z,34.80
2019-01-11T18:55:32.413Z,34.13
2019-01-11T18:58:03.593Z,34.43
2019-01-11T19:00:34.441Z,34.23
2019-01-11T19:03:05.522Z,35.57
2019-01-11T19:05:36.556Z,34.10
2019-01-11T19:08:07.436Z,34.10
2019-01-11T19:10:39.702Z,32.27
2019-01-11T19:13:10.706Z,34.50
2019-01-11T19:15:41.824Z,34.43
2019-01-11T19:18:12.741Z,34.13
2019-01-11T19:20:43.611Z,34.47
2019-01-11T19:23:20.380Z,33.83
2019-01-11T19:25:47.203Z,34.90
2019-01-11T19:28:18.226Z,35.53
2019-01-11T19:30:49.010Z,34.27
2019-01-11T19:33:19.803Z,34.07
2019-01-11T19:35:50.670Z,35.37
2019-01-11T19:38:22.387Z,35.60
2019-01-11T19:40:53.573Z,34.23
2019-01-11T19:43:24.345Z,30.50
2019-01-11T19:45:55.208Z,31.83
2019-01-11T19:48:26.068Z,29.37
2019-01-11T19:50:56.877Z,35.80
2019-01-11T19:53:27.912Z,34.80
2019-01-11T19:55:59.585Z,32.90
2019-01-11T19:58:33.257Z,33.27
2019-01-11T20:01:04.283Z,33.73
2019-01-11T20:03:35.214Z,33.63
2019-01-11T20:06:06.152Z,32.53
2019-01-11T20:08:37.504Z,36.33
2019-01-11T20:11:08.939Z,33.70
2019-01-11T20:13:39.928Z,35.33
2019-01-11T20:16:10.841Z,34.70
2019-01-11T20:18:41.886Z,33.67
2019-01-11T20:21:12.988Z,34.53
2019-01-11T20:23:43.837Z,33.90
2019-01-11T20:26:14.921Z,33.57
2019-01-11T20:28:45.838Z,31.37
2019-01-11T20:31:16.698Z,34.70
2019-01-11T20:33:47.790Z,35.00
2019-01-11T20:36:18.659Z,32.43
2019-01-11T20:38:49.658Z,33.60
2019-01-11T20:41:20.696Z,30.23
2019-01-11T20:43:52.180Z,31.77
2019-01-11T20:46:23.217Z,31.63
2019-01-11T20:48:54.063Z,30.87
2019-01-11T20:51:24.855Z,30.67
2019-01-11T20:53:55.846Z,31.20
2019-01-11T20:56:26.868Z,31.87
2019-01-11T20:58:57.872Z,30.53
2019-01-11T21:01:29.345Z,30.87
2019-01-11T21:04:00.669Z,30.77
2019-01-11T21:06:31.821Z,33.27
2019-01-11T21:09:02.918Z,34.93
2019-01-11T21:11:35.645Z,35.33
2019-01-11T21:14:06.674Z,34.80
2019-01-11T21:16:37.517Z,35.13
2019-01-11T21:19:08.859Z,34.47
2019-01-11T21:21:40.205Z,33.60
2019-01-11T21:24:11.065Z,32.27
2019-01-11T21:26:42.175Z,33.90
2019-01-11T21:29:13.197Z,32.87
2019-01-11T21:31:44.066Z,31.70
2019-01-11T21:34:14.835Z,31.30
2019-01-11T21:36:45.852Z,33.43
2019-01-11T21:39:17.176Z,29.90
2019-01-11T21:41:48.031Z,29.40
2019-01-11T21:44:19.587Z,29.60
2019-01-11T21:46:50.865Z,28.40
2019-01-11T21:49:21.725Z,28.33
2019-01-11T21:51:52.808Z,28.13
2019-01-11T21:54:23.816Z,27.63
2019-01-11T21:56:54.749Z,29.13
2019-01-11T21:59:25.610Z,28.13
2019-01-11T22:01:56.545Z,29.10
2019-01-11T22:04:27.349Z,32.70
2019-01-11T22:06:58.146Z,31.07
2019-01-11T22:09:29.713Z,34.53
2019-01-11T22:12:00.726Z,29.07
2019-01-11T22:14:32.102Z,31.20
2019-01-11T22:17:02.906Z,28.47
2019-01-11T22:19:33.775Z,32.30
2019-01-11T22:22:04.721Z,29.23
2019-01-11T22:24:35.492Z,31.33
2019-01-11T22:27:06.351Z,30.20
2019-01-11T22:29:37.434Z,37.53
2019-01-11T22:32:08.457Z,36.77
2019-01-11T22:34:39.524Z,35.70
2019-01-11T22:37:10.537Z,33.63
2019-01-11T22:39:41.387Z,32.23
2019-01-11T22:42:12.414Z,31.70
2019-01-11T22:44:43.259Z,32.07
2019-01-11T22:47:14.047Z,38.87
2019-01-11T22:49:45.110Z,34.33
2019-01-11T22:52:16.185Z,35.70
2019-01-11T22:54:48.323Z,34.03
2019-01-11T22:57:19.141Z,32.77
2019-01-11T22:59:50.209Z,34.40
2019-01-11T23:02:26.950Z,33.13
2019-01-11T23:04:58.021Z,33.37
2019-01-11T23:07:39.435Z,30.57
2019-01-11T23:10:48.701Z,34.43
2019-01-11T23:13:19.528Z,43.60
2019-01-11T23:15:57.301Z,32.00
2019-01-11T23:18:29.710Z,33.00
2019-01-11T23:21:04.256Z,30.97
2019-01-11T23:23:35.118Z,28.90
2019-01-11T23:26:06.121Z,28.57
2019-01-11T23:28:36.974Z,29.20
2019-01-11T23:31:07.748Z,28.00
2019-01-11T23:33:38.760Z,29.37
2019-01-11T23:36:09.597Z,28.70
2019-01-11T23:38:40.624Z,27.10
2019-01-11T23:41:11.618Z,28.37
2019-01-11T23:43:42.513Z,29.43
2019-01-11T23:46:13.744Z,29.70
2019-01-11T23:48:45.051Z,29.10
2019-01-11T23:51:15.968Z,31.93
2019-01-11T23:53:47.058Z,30.17
2019-01-11T23:56:18.376Z,30.07
2019-01-11T23:58:49.943Z,33.13
